Preston Ferry, Arkansas
Current Conditions -  °F | °C
As of 9:35 PM on Saturday 25 Oct 2014 (Local Time) from KSGT Reporting Station
Clear Clear  
Wind Chill: 20°   Ceiling: Unl
Heat Index: 20°   Visibility: 10mi
Dew Point: 17°   Wind: 7mph
Humidity: 83%   Direction: 210°SSW
Pressure: 30.05"   Gusts: NA
Location:  34.6163°N, 91.3754°W
Report Text: KSGT 260235Z AUTO 21006KT 10SM CLR 20/17 A3005 RMK AO1
Loading
Personal Weather Stations






























Interactive Weather Map
Tropical Storm Tracking
New forecast layout! Learn more

10-Day Weather Forecast

Advertisements
Track Severe Weather on mobile